sensor_id;sensor_type;location;lat;lon;timestamp;P1;durP1;ratioP1;P2;durP2;ratioP2
19343;SDS011;9808;52.402;16.678;2023-07-28T00:01:19;10.55;;;5.22;;
19343;SDS011;9808;52.402;16.678;2023-07-28T00:03:46;10.68;;;5.28;;
19343;SDS011;9808;52.402;16.678;2023-07-28T00:06:13;9.90;;;5.55;;
19343;SDS011;9808;52.402;16.678;2023-07-28T00:08:41;9.38;;;4.90;;
19343;SDS011;9808;52.402;16.678;2023-07-28T00:11:09;11.00;;;5.00;;
19343;SDS011;9808;52.402;16.678;2023-07-28T00:13:38;9.73;;;6.00;;
19343;SDS011;9808;52.402;16.678;2023-07-28T00:16:05;8.25;;;5.32;;
19343;SDS011;9808;52.402;16.678;2023-07-28T00:18:33;9.82;;;5.38;;
19343;SDS011;9808;52.402;16.678;2023-07-28T00:21:00;12.05;;;5.43;;
19343;SDS011;9808;52.402;16.678;2023-07-28T00:23:28;8.18;;;4.78;;
19343;SDS011;9808;52.402;16.678;2023-07-28T00:25:55;8.70;;;4.57;;
19343;SDS011;9808;52.402;16.678;2023-07-28T00:28:22;9.10;;;4.60;;
19343;SDS011;9808;52.402;16.678;2023-07-28T00:30:49;7.95;;;5.03;;
19343;SDS011;9808;52.402;16.678;2023-07-28T00:33:17;7.97;;;4.82;;
19343;SDS011;9808;52.402;16.678;2023-07-28T00:35:44;12.48;;;5.30;;
19343;SDS011;9808;52.402;16.678;2023-07-28T00:38:11;7.63;;;4.60;;
19343;SDS011;9808;52.402;16.678;2023-07-28T00:40:38;9.85;;;5.53;;
19343;SDS011;9808;52.402;16.678;2023-07-28T00:43:06;8.88;;;5.03;;
19343;SDS011;9808;52.402;16.678;2023-07-28T00:45:33;9.55;;;5.43;;
19343;SDS011;9808;52.402;16.678;2023-07-28T00:48:00;7.88;;;5.05;;
19343;SDS011;9808;52.402;16.678;2023-07-28T00:50:28;9.45;;;5.43;;
19343;SDS011;9808;52.402;16.678;2023-07-28T00:52:56;7.97;;;4.65;;
19343;SDS011;9808;52.402;16.678;2023-07-28T00:55:23;9.65;;;5.28;;
19343;SDS011;9808;52.402;16.678;2023-07-28T00:57:50;7.10;;;4.60;;
19343;SDS011;9808;52.402;16.678;2023-07-28T01:00:18;10.57;;;5.10;;
19343;SDS011;9808;52.402;16.678;2023-07-28T01:02:45;7.57;;;4.95;;
19343;SDS011;9808;52.402;16.678;2023-07-28T01:05:12;10.93;;;4.60;;
19343;SDS011;9808;52.402;16.678;2023-07-28T01:07:53;8.10;;;4.70;;
19343;SDS011;9808;52.402;16.678;2023-07-28T01:10:28;8.00;;;5.20;;
19343;SDS011;9808;52.402;16.678;2023-07-28T01:12:56;9.38;;;5.63;;
19343;SDS011;9808;52.402;16.678;2023-07-28T01:15:23;7.57;;;4.50;;
19343;SDS011;9808;52.402;16.678;2023-07-28T01:17:51;9.77;;;5.38;;
19343;SDS011;9808;52.402;16.678;2023-07-28T01:20:18;8.15;;;4.80;;
19343;SDS011;9808;52.402;16.678;2023-07-28T01:27:56;11.52;;;5.30;;
19343;SDS011;9808;52.402;16.678;2023-07-28T01:30:24;7.88;;;4.60;;
19343;SDS011;9808;52.402;16.678;2023-07-28T01:32:55;7.97;;;4.60;;
19343;SDS011;9808;52.402;16.678;2023-07-28T01:35:23;9.32;;;5.03;;
19343;SDS011;9808;52.402;16.678;2023-07-28T01:37:50;8.70;;;4.85;;
19343;SDS011;9808;52.402;16.678;2023-07-28T01:40:18;12.65;;;5.30;;
19343;SDS011;9808;52.402;16.678;2023-07-28T01:42:45;7.72;;;4.63;;
19343;SDS011;9808;52.402;16.678;2023-07-28T01:45:13;15.82;;;5.60;;
19343;SDS011;9808;52.402;16.678;2023-07-28T01:47:40;9.23;;;4.95;;
19343;SDS011;9808;52.402;16.678;2023-07-28T01:50:07;11.70;;;5.32;;
19343;SDS011;9808;52.402;16.678;2023-07-28T01:52:34;8.30;;;4.95;;
19343;SDS011;9808;52.402;16.678;2023-07-28T01:55:02;6.80;;;4.63;;
19343;SDS011;9808;52.402;16.678;2023-07-28T01:57:32;10.07;;;5.57;;
19343;SDS011;9808;52.402;16.678;2023-07-28T01:59:59;10.55;;;5.25;;
19343;SDS011;9808;52.402;16.678;2023-07-28T02:02:26;7.90;;;4.72;;
19343;SDS011;9808;52.402;16.678;2023-07-28T02:04:53;8.50;;;5.00;;
19343;SDS011;9808;52.402;16.678;2023-07-28T02:07:20;10.75;;;5.50;;
19343;SDS011;9808;52.402;16.678;2023-07-28T02:09:48;8.93;;;5.38;;
19343;SDS011;9808;52.402;16.678;2023-07-28T02:12:15;8.90;;;5.72;;
19343;SDS011;9808;52.402;16.678;2023-07-28T02:14:42;11.60;;;5.50;;
19343;SDS011;9808;52.402;16.678;2023-07-28T02:17:09;9.10;;;5.78;;
19343;SDS011;9808;52.402;16.678;2023-07-28T02:19:36;8.88;;;6.07;;
19343;SDS011;9808;52.402;16.678;2023-07-28T02:22:04;13.02;;;6.22;;
19343;SDS011;9808;52.402;16.678;2023-07-28T02:24:33;9.48;;;6.13;;
19343;SDS011;9808;52.402;16.678;2023-07-28T02:27:00;9.85;;;5.97;;
19343;SDS011;9808;52.402;16.678;2023-07-28T02:29:27;8.55;;;5.68;;
19343;SDS011;9808;52.402;16.678;2023-07-28T02:31:54;13.25;;;6.03;;
19343;SDS011;9808;52.402;16.678;2023-07-28T02:34:21;12.00;;;6.32;;
19343;SDS011;9808;52.402;16.678;2023-07-28T02:36:49;9.90;;;6.00;;
19343;SDS011;9808;52.402;16.678;2023-07-28T02:39:17;9.57;;;6.28;;
19343;SDS011;9808;52.402;16.678;2023-07-28T02:41:44;14.15;;;6.13;;
19343;SDS011;9808;52.402;16.678;2023-07-28T02:44:12;12.60;;;6.43;;
19343;SDS011;9808;52.402;16.678;2023-07-28T02:46:39;8.57;;;5.85;;
19343;SDS011;9808;52.402;16.678;2023-07-28T02:49:07;10.25;;;5.80;;
19343;SDS011;9808;52.402;16.678;2023-07-28T02:51:34;8.63;;;5.60;;
19343;SDS011;9808;52.402;16.678;2023-07-28T02:54:04;14.90;;;6.72;;
19343;SDS011;9808;52.402;16.678;2023-07-28T02:56:31;11.13;;;5.65;;
19343;SDS011;9808;52.402;16.678;2023-07-28T02:59:02;11.35;;;6.32;;
19343;SDS011;9808;52.402;16.678;2023-07-28T03:01:29;10.88;;;6.07;;
19343;SDS011;9808;52.402;16.678;2023-07-28T03:04:00;11.25;;;5.82;;
19343;SDS011;9808;52.402;16.678;2023-07-28T03:06:27;9.52;;;5.47;;
19343;SDS011;9808;52.402;16.678;2023-07-28T03:08:54;8.82;;;6.43;;
19343;SDS011;9808;52.402;16.678;2023-07-28T03:11:22;8.27;;;5.55;;
19343;SDS011;9808;52.402;16.678;2023-07-28T03:13:49;10.00;;;5.82;;
19343;SDS011;9808;52.402;16.678;2023-07-28T03:16:16;8.20;;;5.95;;
19343;SDS011;9808;52.402;16.678;2023-07-28T03:18:44;7.45;;;4.97;;
19343;SDS011;9808;52.402;16.678;2023-07-28T03:21:11;11.57;;;5.30;;
19343;SDS011;9808;52.402;16.678;2023-07-28T03:23:38;8.63;;;5.50;;
19343;SDS011;9808;52.402;16.678;2023-07-28T03:26:05;8.32;;;5.45;;
19343;SDS011;9808;52.402;16.678;2023-07-28T03:28:32;8.43;;;5.47;;
19343;SDS011;9808;52.402;16.678;2023-07-28T03:31:00;7.18;;;5.00;;
19343;SDS011;9808;52.402;16.678;2023-07-28T03:33:27;8.07;;;5.10;;
19343;SDS011;9808;52.402;16.678;2023-07-28T03:35:54;9.65;;;5.75;;
19343;SDS011;9808;52.402;16.678;2023-07-28T03:38:21;7.57;;;5.22;;
19343;SDS011;9808;52.402;16.678;2023-07-28T03:40:50;10.68;;;6.10;;
19343;SDS011;9808;52.402;16.678;2023-07-28T03:43:17;9.98;;;5.57;;
19343;SDS011;9808;52.402;16.678;2023-07-28T03:45:45;9.77;;;6.30;;
19343;SDS011;9808;52.402;16.678;2023-07-28T03:48:12;8.65;;;5.88;;
19343;SDS011;9808;52.402;16.678;2023-07-28T03:50:39;8.27;;;5.43;;
19343;SDS011;9808;52.402;16.678;2023-07-28T03:53:07;8.30;;;6.03;;
19343;SDS011;9808;52.402;16.678;2023-07-28T03:55:34;7.75;;;5.90;;
19343;SDS011;9808;52.402;16.678;2023-07-28T03:58:01;9.65;;;6.03;;
19343;SDS011;9808;52.402;16.678;2023-07-28T04:00:29;8.20;;;6.07;;
19343;SDS011;9808;52.402;16.678;2023-07-28T04:02:56;7.95;;;5.72;;
19343;SDS011;9808;52.402;16.678;2023-07-28T04:05:23;10.07;;;5.63;;
19343;SDS011;9808;52.402;16.678;2023-07-28T04:07:51;7.25;;;5.55;;
19343;SDS011;9808;52.402;16.678;2023-07-28T04:10:18;8.55;;;5.97;;
19343;SDS011;9808;52.402;16.678;2023-07-28T04:12:47;7.90;;;5.70;;
19343;SDS011;9808;52.402;16.678;2023-07-28T04:15:14;7.57;;;5.20;;
19343;SDS011;9808;52.402;16.678;2023-07-28T04:17:41;8.70;;;5.95;;
19343;SDS011;9808;52.402;16.678;2023-07-28T04:20:08;8.38;;;5.50;;
19343;SDS011;9808;52.402;16.678;2023-07-28T04:22:36;6.85;;;5.22;;
19343;SDS011;9808;52.402;16.678;2023-07-28T04:25:03;11.30;;;6.07;;
19343;SDS011;9808;52.402;16.678;2023-07-28T04:27:30;9.68;;;6.10;;
19343;SDS011;9808;52.402;16.678;2023-07-28T04:29:57;7.80;;;5.60;;
19343;SDS011;9808;52.402;16.678;2023-07-28T04:32:25;9.07;;;6.28;;
19343;SDS011;9808;52.402;16.678;2023-07-28T04:34:53;11.27;;;6.57;;
19343;SDS011;9808;52.402;16.678;2023-07-28T04:37:20;9.77;;;6.60;;
19343;SDS011;9808;52.402;16.678;2023-07-28T04:39:47;11.02;;;6.53;;
19343;SDS011;9808;52.402;16.678;2023-07-28T04:42:15;11.98;;;6.50;;
19343;SDS011;9808;52.402;16.678;2023-07-28T04:44:42;10.23;;;6.65;;
19343;SDS011;9808;52.402;16.678;2023-07-28T04:47:10;11.23;;;6.90;;
19343;SDS011;9808;52.402;16.678;2023-07-28T04:49:37;10.10;;;6.95;;
19343;SDS011;9808;52.402;16.678;2023-07-28T04:52:05;13.10;;;6.72;;
19343;SDS011;9808;52.402;16.678;2023-07-28T04:54:32;13.25;;;6.53;;
19343;SDS011;9808;52.402;16.678;2023-07-28T04:56:59;10.65;;;7.30;;
19343;SDS011;9808;52.402;16.678;2023-07-28T04:59:26;11.18;;;6.93;;
19343;SDS011;9808;52.402;16.678;2023-07-28T05:01:54;10.43;;;7.22;;
19343;SDS011;9808;52.402;16.678;2023-07-28T05:04:21;8.85;;;6.68;;
19343;SDS011;9808;52.402;16.678;2023-07-28T05:06:48;10.93;;;7.22;;
19343;SDS011;9808;52.402;16.678;2023-07-28T05:09:15;11.98;;;6.93;;
19343;SDS011;9808;52.402;16.678;2023-07-28T05:11:43;10.13;;;6.45;;
19343;SDS011;9808;52.402;16.678;2023-07-28T05:14:13;10.15;;;7.00;;
19343;SDS011;9808;52.402;16.678;2023-07-28T05:16:40;11.10;;;6.18;;
19343;SDS011;9808;52.402;16.678;2023-07-28T05:19:08;10.13;;;6.53;;
19343;SDS011;9808;52.402;16.678;2023-07-28T05:21:35;10.07;;;7.25;;
19343;SDS011;9808;52.402;16.678;2023-07-28T05:24:02;9.77;;;7.03;;
19343;SDS011;9808;52.402;16.678;2023-07-28T05:26:30;9.35;;;6.65;;
19343;SDS011;9808;52.402;16.678;2023-07-28T05:28:57;9.75;;;6.68;;
19343;SDS011;9808;52.402;16.678;2023-07-28T05:31:24;9.30;;;6.63;;
19343;SDS011;9808;52.402;16.678;2023-07-28T05:33:51;11.38;;;6.70;;
19343;SDS011;9808;52.402;16.678;2023-07-28T05:36:20;15.15;;;7.38;;
19343;SDS011;9808;52.402;16.678;2023-07-28T05:38:47;8.30;;;6.68;;
19343;SDS011;9808;52.402;16.678;2023-07-28T05:41:14;10.65;;;6.63;;
19343;SDS011;9808;52.402;16.678;2023-07-28T05:43:43;11.98;;;6.18;;
19343;SDS011;9808;52.402;16.678;2023-07-28T05:46:10;10.55;;;6.00;;
19343;SDS011;9808;52.402;16.678;2023-07-28T05:48:38;9.52;;;5.88;;
19343;SDS011;9808;52.402;16.678;2023-07-28T05:51:05;8.32;;;6.22;;
19343;SDS011;9808;52.402;16.678;2023-07-28T05:53:32;12.88;;;6.53;;
19343;SDS011;9808;52.402;16.678;2023-07-28T05:55:59;12.50;;;6.45;;
19343;SDS011;9808;52.402;16.678;2023-07-28T05:58:26;10.75;;;6.25;;
19343;SDS011;9808;52.402;16.678;2023-07-28T06:00:53;8.73;;;5.90;;
19343;SDS011;9808;52.402;16.678;2023-07-28T06:03:21;9.20;;;5.72;;
19343;SDS011;9808;52.402;16.678;2023-07-28T06:05:49;9.07;;;6.07;;
19343;SDS011;9808;52.402;16.678;2023-07-28T06:08:17;13.57;;;6.53;;
19343;SDS011;9808;52.402;16.678;2023-07-28T06:10:44;8.95;;;5.75;;
19343;SDS011;9808;52.402;16.678;2023-07-28T06:13:11;7.75;;;5.45;;
19343;SDS011;9808;52.402;16.678;2023-07-28T06:15:39;8.20;;;5.05;;
19343;SDS011;9808;52.402;16.678;2023-07-28T06:18:06;8.20;;;5.80;;
19343;SDS011;9808;52.402;16.678;2023-07-28T06:20:34;11.20;;;5.13;;
19343;SDS011;9808;52.402;16.678;2023-07-28T06:23:01;7.25;;;4.85;;
19343;SDS011;9808;52.402;16.678;2023-07-28T06:25:28;7.45;;;4.03;;
19343;SDS011;9808;52.402;16.678;2023-07-28T06:27:56;5.63;;;4.10;;
19343;SDS011;9808;52.402;16.678;2023-07-28T06:30:23;9.02;;;4.15;;
19343;SDS011;9808;52.402;16.678;2023-07-28T06:32:51;7.93;;;4.18;;
19343;SDS011;9808;52.402;16.678;2023-07-28T06:35:18;5.53;;;3.38;;
19343;SDS011;9808;52.402;16.678;2023-07-28T06:37:45;5.00;;;3.30;;
19343;SDS011;9808;52.402;16.678;2023-07-28T06:40:13;7.97;;;3.30;;
19343;SDS011;9808;52.402;16.678;2023-07-28T06:42:40;4.65;;;3.10;;
19343;SDS011;9808;52.402;16.678;2023-07-28T06:45:08;10.25;;;3.08;;
19343;SDS011;9808;52.402;16.678;2023-07-28T06:47:35;5.03;;;3.13;;
19343;SDS011;9808;52.402;16.678;2023-07-28T06:50:02;8.15;;;3.72;;
19343;SDS011;9808;52.402;16.678;2023-07-28T06:52:31;4.75;;;2.95;;
19343;SDS011;9808;52.402;16.678;2023-07-28T06:54:58;5.78;;;3.35;;
19343;SDS011;9808;52.402;16.678;2023-07-28T06:57:25;6.93;;;3.70;;
19343;SDS011;9808;52.402;16.678;2023-07-28T06:59:52;9.23;;;3.45;;
19343;SDS011;9808;52.402;16.678;2023-07-28T07:02:20;5.22;;;3.10;;
19343;SDS011;9808;52.402;16.678;2023-07-28T07:04:47;6.50;;;3.08;;
19343;SDS011;9808;52.402;16.678;2023-07-28T07:07:14;6.82;;;3.20;;
19343;SDS011;9808;52.402;16.678;2023-07-28T07:09:42;4.30;;;2.45;;
19343;SDS011;9808;52.402;16.678;2023-07-28T07:12:09;4.43;;;2.50;;
19343;SDS011;9808;52.402;16.678;2023-07-28T07:14:36;3.58;;;2.28;;
19343;SDS011;9808;52.402;16.678;2023-07-28T07:17:05;3.83;;;2.33;;
19343;SDS011;9808;52.402;16.678;2023-07-28T07:19:32;3.50;;;2.28;;
19343;SDS011;9808;52.402;16.678;2023-07-28T07:22:00;3.65;;;2.30;;
19343;SDS011;9808;52.402;16.678;2023-07-28T07:24:28;5.80;;;2.75;;
19343;SDS011;9808;52.402;16.678;2023-07-28T07:26:55;5.45;;;3.00;;
19343;SDS011;9808;52.402;16.678;2023-07-28T07:29:22;4.68;;;3.03;;
19343;SDS011;9808;52.402;16.678;2023-07-28T07:31:49;7.63;;;3.45;;
19343;SDS011;9808;52.402;16.678;2023-07-28T07:34:21;6.28;;;3.70;;
19343;SDS011;9808;52.402;16.678;2023-07-28T07:36:49;6.93;;;4.00;;
19343;SDS011;9808;52.402;16.678;2023-07-28T07:39:16;6.72;;;3.72;;
19343;SDS011;9808;52.402;16.678;2023-07-28T07:41:44;6.50;;;4.00;;
19343;SDS011;9808;52.402;16.678;2023-07-28T07:44:11;7.15;;;4.68;;
19343;SDS011;9808;52.402;16.678;2023-07-28T07:46:39;7.03;;;4.00;;
19343;SDS011;9808;52.402;16.678;2023-07-28T07:49:09;5.95;;;4.03;;
19343;SDS011;9808;52.402;16.678;2023-07-28T07:51:36;6.40;;;4.25;;
19343;SDS011;9808;52.402;16.678;2023-07-28T07:54:03;10.48;;;6.00;;
19343;SDS011;9808;52.402;16.678;2023-07-28T07:56:31;7.60;;;5.03;;
19343;SDS011;9808;52.402;16.678;2023-07-28T07:58:58;5.85;;;3.92;;
19343;SDS011;9808;52.402;16.678;2023-07-28T08:01:25;9.88;;;4.75;;
19343;SDS011;9808;52.402;16.678;2023-07-28T08:03:52;6.47;;;4.32;;
19343;SDS011;9808;52.402;16.678;2023-07-28T08:06:20;7.50;;;4.07;;
19343;SDS011;9808;52.402;16.678;2023-07-28T08:08:47;8.07;;;4.45;;
19343;SDS011;9808;52.402;16.678;2023-07-28T08:11:17;8.30;;;4.20;;
19343;SDS011;9808;52.402;16.678;2023-07-28T08:13:44;8.77;;;4.90;;
19343;SDS011;9808;52.402;16.678;2023-07-28T08:16:11;8.85;;;5.07;;
19343;SDS011;9808;52.402;16.678;2023-07-28T08:18:39;9.60;;;5.32;;
19343;SDS011;9808;52.402;16.678;2023-07-28T08:21:06;6.90;;;4.28;;
19343;SDS011;9808;52.402;16.678;2023-07-28T08:23:33;8.15;;;4.50;;
19343;SDS011;9808;52.402;16.678;2023-07-28T08:26:00;6.07;;;4.25;;
19343;SDS011;9808;52.402;16.678;2023-07-28T08:28:28;7.53;;;4.40;;
19343;SDS011;9808;52.402;16.678;2023-07-28T08:30:56;7.05;;;4.15;;
19343;SDS011;9808;52.402;16.678;2023-07-28T08:33:24;5.47;;;4.18;;
19343;SDS011;9808;52.402;16.678;2023-07-28T08:35:51;6.05;;;4.40;;
19343;SDS011;9808;52.402;16.678;2023-07-28T08:38:19;6.25;;;4.65;;
19343;SDS011;9808;52.402;16.678;2023-07-28T08:40:46;6.50;;;4.45;;
19343;SDS011;9808;52.402;16.678;2023-07-28T08:43:13;6.20;;;4.20;;
19343;SDS011;9808;52.402;16.678;2023-07-28T08:45:40;7.35;;;3.85;;
19343;SDS011;9808;52.402;16.678;2023-07-28T08:48:08;5.85;;;3.95;;
19343;SDS011;9808;52.402;16.678;2023-07-28T08:50:36;7.22;;;3.88;;
19343;SDS011;9808;52.402;16.678;2023-07-28T08:53:03;5.57;;;3.20;;
19343;SDS011;9808;52.402;16.678;2023-07-28T08:55:31;6.85;;;3.00;;
19343;SDS011;9808;52.402;16.678;2023-07-28T08:58:13;3.85;;;2.63;;
19343;SDS011;9808;52.402;16.678;2023-07-28T09:00:41;7.25;;;2.75;;
19343;SDS011;9808;52.402;16.678;2023-07-28T09:03:08;5.13;;;2.92;;
19343;SDS011;9808;52.402;16.678;2023-07-28T09:05:36;7.38;;;2.92;;
19343;SDS011;9808;52.402;16.678;2023-07-28T09:08:04;4.65;;;2.75;;
19343;SDS011;9808;52.402;16.678;2023-07-28T09:10:43;4.10;;;2.85;;
19343;SDS011;9808;52.402;16.678;2023-07-28T09:13:12;4.15;;;2.70;;
19343;SDS011;9808;52.402;16.678;2023-07-28T09:15:43;3.38;;;2.40;;
19343;SDS011;9808;52.402;16.678;2023-07-28T09:18:14;6.07;;;2.67;;
19343;SDS011;9808;52.402;16.678;2023-07-28T09:20:42;3.13;;;2.25;;
19343;SDS011;9808;52.402;16.678;2023-07-28T09:23:10;3.80;;;2.50;;
19343;SDS011;9808;52.402;16.678;2023-07-28T09:25:38;4.82;;;2.58;;
19343;SDS011;9808;52.402;16.678;2023-07-28T09:28:05;8.50;;;2.40;;
19343;SDS011;9808;52.402;16.678;2023-07-28T09:30:48;4.28;;;2.67;;
19343;SDS011;9808;52.402;16.678;2023-07-28T09:33:29;3.35;;;2.22;;
19343;SDS011;9808;52.402;16.678;2023-07-28T09:35:57;3.13;;;2.25;;
19343;SDS011;9808;52.402;16.678;2023-07-28T09:38:24;3.55;;;2.15;;
19343;SDS011;9808;52.402;16.678;2023-07-28T09:40:54;4.28;;;2.08;;
19343;SDS011;9808;52.402;16.678;2023-07-28T09:43:23;4.15;;;1.90;;
19343;SDS011;9808;52.402;16.678;2023-07-28T09:45:50;2.80;;;1.73;;
19343;SDS011;9808;52.402;16.678;2023-07-28T09:48:17;2.40;;;1.90;;
19343;SDS011;9808;52.402;16.678;2023-07-28T09:50:45;2.35;;;1.50;;
19343;SDS011;9808;52.402;16.678;2023-07-28T09:53:12;2.42;;;1.60;;
19343;SDS011;9808;52.402;16.678;2023-07-28T09:55:40;2.63;;;1.80;;
19343;SDS011;9808;52.402;16.678;2023-07-28T09:58:09;4.05;;;1.52;;
19343;SDS011;9808;52.402;16.678;2023-07-28T10:00:38;2.60;;;1.60;;
19343;SDS011;9808;52.402;16.678;2023-07-28T10:03:06;1.95;;;1.35;;
19343;SDS011;9808;52.402;16.678;2023-07-28T10:05:35;1.55;;;1.20;;
19343;SDS011;9808;52.402;16.678;2023-07-28T10:08:04;1.63;;;1.27;;
19343;SDS011;9808;52.402;16.678;2023-07-28T10:10:32;1.55;;;1.33;;
19343;SDS011;9808;52.402;16.678;2023-07-28T10:13:00;2.05;;;1.60;;
19343;SDS011;9808;52.402;16.678;2023-07-28T10:15:28;2.03;;;1.60;;
19343;SDS011;9808;52.402;16.678;2023-07-28T10:17:56;2.92;;;1.90;;
19343;SDS011;9808;52.402;16.678;2023-07-28T10:23:07;3.83;;;2.20;;
19343;SDS011;9808;52.402;16.678;2023-07-28T10:25:38;2.58;;;1.80;;
19343;SDS011;9808;52.402;16.678;2023-07-28T10:28:24;3.50;;;2.30;;
19343;SDS011;9808;52.402;16.678;2023-07-28T10:30:53;5.65;;;2.17;;
19343;SDS011;9808;52.402;16.678;2023-07-28T10:33:34;3.85;;;2.20;;
19343;SDS011;9808;52.402;16.678;2023-07-28T10:39:01;2.10;;;1.40;;
19343;SDS011;9808;52.402;16.678;2023-07-28T10:41:30;2.08;;;1.60;;
19343;SDS011;9808;52.402;16.678;2023-07-28T10:43:57;1.55;;;1.10;;
19343;SDS011;9808;52.402;16.678;2023-07-28T10:46:24;2.88;;;1.15;;
19343;SDS011;9808;52.402;16.678;2023-07-28T10:48:54;4.88;;;1.95;;
19343;SDS011;9808;52.402;16.678;2023-07-28T10:51:24;1.40;;;1.10;;
19343;SDS011;9808;52.402;16.678;2023-07-28T10:53:54;2.85;;;1.38;;
19343;SDS011;9808;52.402;16.678;2023-07-28T10:56:22;2.63;;;1.30;;
19343;SDS011;9808;52.402;16.678;2023-07-28T10:58:59;1.50;;;1.23;;
19343;SDS011;9808;52.402;16.678;2023-07-28T11:04:33;1.38;;;1.08;;
19343;SDS011;9808;52.402;16.678;2023-07-28T11:06:53;2.00;;;1.30;;
19343;SDS011;9808;52.402;16.678;2023-07-28T11:09:22;1.40;;;1.02;;
19343;SDS011;9808;52.402;16.678;2023-07-28T11:11:52;2.42;;;1.40;;
19343;SDS011;9808;52.402;16.678;2023-07-28T11:14:19;2.17;;;1.35;;
19343;SDS011;9808;52.402;16.678;2023-07-28T11:16:47;1.60;;;1.30;;
19343;SDS011;9808;52.402;16.678;2023-07-28T11:19:15;2.15;;;1.30;;
19343;SDS011;9808;52.402;16.678;2023-07-28T11:21:45;1.40;;;1.20;;
19343;SDS011;9808;52.402;16.678;2023-07-28T11:24:18;2.38;;;1.40;;
19343;SDS011;9808;52.402;16.678;2023-07-28T11:26:46;3.30;;;1.48;;
19343;SDS011;9808;52.402;16.678;2023-07-28T11:29:14;1.75;;;1.30;;
19343;SDS011;9808;52.402;16.678;2023-07-28T11:31:42;3.25;;;1.55;;
19343;SDS011;9808;52.402;16.678;2023-07-28T11:34:13;1.83;;;1.40;;
19343;SDS011;9808;52.402;16.678;2023-07-28T11:36:41;1.65;;;1.40;;
19343;SDS011;9808;52.402;16.678;2023-07-28T11:39:08;1.80;;;1.40;;
19343;SDS011;9808;52.402;16.678;2023-07-28T11:41:37;1.98;;;1.30;;
19343;SDS011;9808;52.402;16.678;2023-07-28T11:44:06;2.72;;;1.60;;
19343;SDS011;9808;52.402;16.678;2023-07-28T11:46:37;2.90;;;1.55;;
19343;SDS011;9808;52.402;16.678;2023-07-28T11:49:09;2.05;;;1.40;;
19343;SDS011;9808;52.402;16.678;2023-07-28T11:51:37;3.65;;;1.92;;
19343;SDS011;9808;52.402;16.678;2023-07-28T11:54:05;5.47;;;1.73;;
19343;SDS011;9808;52.402;16.678;2023-07-28T11:56:33;2.47;;;1.80;;
19343;SDS011;9808;52.402;16.678;2023-07-28T11:59:01;2.38;;;1.80;;
19343;SDS011;9808;52.402;16.678;2023-07-28T12:01:29;2.67;;;1.80;;
19343;SDS011;9808;52.402;16.678;2023-07-28T12:03:56;3.00;;;2.03;;
19343;SDS011;9808;52.402;16.678;2023-07-28T12:06:27;3.50;;;2.00;;
19343;SDS011;9808;52.402;16.678;2023-07-28T12:09:04;4.07;;;1.73;;
19343;SDS011;9808;52.402;16.678;2023-07-28T12:11:34;7.55;;;1.98;;
19343;SDS011;9808;52.402;16.678;2023-07-28T12:14:04;2.53;;;1.60;;
19343;SDS011;9808;52.402;16.678;2023-07-28T12:16:38;1.77;;;1.48;;
19343;SDS011;9808;52.402;16.678;2023-07-28T12:19:09;2.58;;;1.73;;
19343;SDS011;9808;52.402;16.678;2023-07-28T12:21:36;3.95;;;1.60;;
19343;SDS011;9808;52.402;16.678;2023-07-28T12:24:03;3.38;;;1.58;;
19343;SDS011;9808;52.402;16.678;2023-07-28T12:26:33;2.63;;;1.80;;
19343;SDS011;9808;52.402;16.678;2023-07-28T12:29:05;1.98;;;1.40;;
19343;SDS011;9808;52.402;16.678;2023-07-28T12:31:35;1.65;;;1.27;;
19343;SDS011;9808;52.402;16.678;2023-07-28T12:34:05;2.67;;;1.73;;
19343;SDS011;9808;52.402;16.678;2023-07-28T12:36:32;3.92;;;1.38;;
19343;SDS011;9808;52.402;16.678;2023-07-28T12:39:03;3.15;;;1.30;;
19343;SDS011;9808;52.402;16.678;2023-07-28T12:41:35;2.03;;;1.30;;
19343;SDS011;9808;52.402;16.678;2023-07-28T12:44:05;1.10;;;0.88;;
19343;SDS011;9808;52.402;16.678;2023-07-28T12:46:33;4.00;;;1.33;;
19343;SDS011;9808;52.402;16.678;2023-07-28T12:49:00;6.63;;;2.35;;
19343;SDS011;9808;52.402;16.678;2023-07-28T12:51:27;2.15;;;1.42;;
19343;SDS011;9808;52.402;16.678;2023-07-28T12:53:56;1.52;;;1.20;;
19343;SDS011;9808;52.402;16.678;2023-07-28T12:56:23;2.38;;;1.50;;
19343;SDS011;9808;52.402;16.678;2023-07-28T12:58:54;3.13;;;1.65;;
19343;SDS011;9808;52.402;16.678;2023-07-28T13:01:24;4.53;;;1.73;;
19343;SDS011;9808;52.402;16.678;2023-07-28T13:03:52;3.88;;;1.65;;
19343;SDS011;9808;52.402;16.678;2023-07-28T13:06:19;4.15;;;1.70;;
19343;SDS011;9808;52.402;16.678;2023-07-28T13:08:47;6.93;;;1.85;;
19343;SDS011;9808;52.402;16.678;2023-07-28T13:11:17;5.18;;;1.23;;
19343;SDS011;9808;52.402;16.678;2023-07-28T13:13:44;5.80;;;1.67;;
19343;SDS011;9808;52.402;16.678;2023-07-28T13:16:12;6.40;;;1.30;;
19343;SDS011;9808;52.402;16.678;2023-07-28T13:18:39;6.45;;;2.13;;
19343;SDS011;9808;52.402;16.678;2023-07-28T13:21:07;4.72;;;1.33;;
19343;SDS011;9808;52.402;16.678;2023-07-28T13:23:34;5.53;;;1.60;;
19343;SDS011;9808;52.402;16.678;2023-07-28T13:26:02;4.43;;;1.40;;
19343;SDS011;9808;52.402;16.678;2023-07-28T13:28:33;4.20;;;1.30;;
19343;SDS011;9808;52.402;16.678;2023-07-28T13:31:04;6.47;;;1.70;;
19343;SDS011;9808;52.402;16.678;2023-07-28T13:33:31;3.75;;;1.60;;
19343;SDS011;9808;52.402;16.678;2023-07-28T13:35:58;9.82;;;1.55;;
19343;SDS011;9808;52.402;16.678;2023-07-28T13:38:26;4.80;;;1.90;;
19343;SDS011;9808;52.402;16.678;2023-07-28T13:40:53;6.30;;;1.77;;
19343;SDS011;9808;52.402;16.678;2023-07-28T13:43:21;5.85;;;2.00;;
19343;SDS011;9808;52.402;16.678;2023-07-28T13:45:48;4.80;;;1.65;;
19343;SDS011;9808;52.402;16.678;2023-07-28T13:48:16;3.83;;;1.77;;
19343;SDS011;9808;52.402;16.678;2023-07-28T13:50:46;7.05;;;1.83;;
19343;SDS011;9808;52.402;16.678;2023-07-28T13:53:21;3.95;;;2.05;;
19343;SDS011;9808;52.402;16.678;2023-07-28T13:55:51;6.20;;;1.70;;
19343;SDS011;9808;52.402;16.678;2023-07-28T13:58:22;4.40;;;1.90;;
19343;SDS011;9808;52.402;16.678;2023-07-28T14:00:49;2.75;;;1.67;;
19343;SDS011;9808;52.402;16.678;2023-07-28T14:03:16;3.20;;;1.63;;
19343;SDS011;9808;52.402;16.678;2023-07-28T14:05:44;2.97;;;1.45;;
19343;SDS011;9808;52.402;16.678;2023-07-28T14:08:13;3.08;;;1.50;;
19343;SDS011;9808;52.402;16.678;2023-07-28T14:10:44;2.08;;;1.50;;
19343;SDS011;9808;52.402;16.678;2023-07-28T14:13:11;1.95;;;1.00;;
19343;SDS011;9808;52.402;16.678;2023-07-28T14:15:39;2.17;;;1.30;;
19343;SDS011;9808;52.402;16.678;2023-07-28T14:18:06;4.40;;;1.23;;
19343;SDS011;9808;52.402;16.678;2023-07-28T14:20:34;4.43;;;1.40;;
19343;SDS011;9808;52.402;16.678;2023-07-28T14:23:02;2.05;;;1.20;;
19343;SDS011;9808;52.402;16.678;2023-07-28T14:25:46;2.30;;;1.50;;
19343;SDS011;9808;52.402;16.678;2023-07-28T14:28:14;2.38;;;1.35;;
19343;SDS011;9808;52.402;16.678;2023-07-28T14:30:41;2.90;;;1.45;;
19343;SDS011;9808;52.402;16.678;2023-07-28T14:33:16;2.55;;;1.50;;
19343;SDS011;9808;52.402;16.678;2023-07-28T14:35:44;3.75;;;1.50;;
19343;SDS011;9808;52.402;16.678;2023-07-28T14:38:11;2.05;;;1.50;;
19343;SDS011;9808;52.402;16.678;2023-07-28T14:40:39;4.63;;;1.48;;
19343;SDS011;9808;52.402;16.678;2023-07-28T14:43:07;2.05;;;1.40;;
19343;SDS011;9808;52.402;16.678;2023-07-28T14:45:34;4.40;;;1.65;;
19343;SDS011;9808;52.402;16.678;2023-07-28T14:48:02;2.25;;;1.38;;
19343;SDS011;9808;52.402;16.678;2023-07-28T14:50:29;2.10;;;1.42;;
19343;SDS011;9808;52.402;16.678;2023-07-28T14:52:57;4.00;;;1.10;;
19343;SDS011;9808;52.402;16.678;2023-07-28T14:55:25;2.72;;;1.23;;
19343;SDS011;9808;52.402;16.678;2023-07-28T14:57:53;1.08;;;0.80;;
19343;SDS011;9808;52.402;16.678;2023-07-28T15:00:20;1.73;;;0.95;;
19343;SDS011;9808;52.402;16.678;2023-07-28T15:02:47;3.60;;;1.17;;
19343;SDS011;9808;52.402;16.678;2023-07-28T15:05:15;1.98;;;1.02;;